sensor_id;sensor_type;location;lat;lon;timestamp;P1;durP1;ratioP1;P2;durP2;ratioP2
928;SDS011;451;47.988;7.842;2023-04-15T00:07:35;2.10;;;2.00;;
928;SDS011;451;47.988;7.842;2023-04-15T00:16:40;3.00;;;2.27;;
928;SDS011;451;47.988;7.842;2023-04-15T00:25:43;2.33;;;2.13;;
928;SDS011;451;47.988;7.842;2023-04-15T00:34:47;2.27;;;2.07;;
928;SDS011;451;47.988;7.842;2023-04-15T00:43:51;2.37;;;2.00;;
928;SDS011;451;47.988;7.842;2023-04-15T00:52:56;2.00;;;1.80;;
928;SDS011;451;47.988;7.842;2023-04-15T01:01:59;2.40;;;1.63;;
928;SDS011;451;47.988;7.842;2023-04-15T01:11:03;4.57;;;2.30;;
928;SDS011;451;47.988;7.842;2023-04-15T01:20:07;2.00;;;1.80;;
928;SDS011;451;47.988;7.842;2023-04-15T01:29:14;2.17;;;1.97;;
928;SDS011;451;47.988;7.842;2023-04-15T01:38:17;2.57;;;1.90;;
928;SDS011;451;47.988;7.842;2023-04-15T01:47:22;2.00;;;1.90;;
928;SDS011;451;47.988;7.842;2023-04-15T01:56:25;1.70;;;1.60;;
928;SDS011;451;47.988;7.842;2023-04-15T02:05:29;1.63;;;1.53;;
928;SDS011;451;47.988;7.842;2023-04-15T02:14:32;2.00;;;1.63;;
928;SDS011;451;47.988;7.842;2023-04-15T02:23:36;1.60;;;1.50;;
928;SDS011;451;47.988;7.842;2023-04-15T02:32:40;2.50;;;1.73;;
928;SDS011;451;47.988;7.842;2023-04-15T02:41:46;2.87;;;1.70;;
928;SDS011;451;47.988;7.842;2023-04-15T02:50:52;2.77;;;1.87;;
928;SDS011;451;47.988;7.842;2023-04-15T02:59:57;1.53;;;1.43;;
928;SDS011;451;47.988;7.842;2023-04-15T03:09:00;1.83;;;1.63;;
928;SDS011;451;47.988;7.842;2023-04-15T03:18:09;3.00;;;2.80;;
928;SDS011;451;47.988;7.842;2023-04-15T03:27:12;2.77;;;2.57;;
928;SDS011;451;47.988;7.842;2023-04-15T03:36:17;3.13;;;2.93;;
928;SDS011;451;47.988;7.842;2023-04-15T03:45:21;2.63;;;2.43;;
928;SDS011;451;47.988;7.842;2023-04-15T03:54:25;3.57;;;2.20;;
928;SDS011;451;47.988;7.842;2023-04-15T04:03:28;2.30;;;2.10;;
928;SDS011;451;47.988;7.842;2023-04-15T04:12:33;2.40;;;2.07;;
928;SDS011;451;47.988;7.842;2023-04-15T04:21:37;17.17;;;9.40;;
928;SDS011;451;47.988;7.842;2023-04-15T04:30:41;5.37;;;1.97;;
928;SDS011;451;47.988;7.842;2023-04-15T04:39:45;3.00;;;2.67;;
928;SDS011;451;47.988;7.842;2023-04-15T04:48:49;3.57;;;2.03;;
928;SDS011;451;47.988;7.842;2023-04-15T04:57:52;1.97;;;1.83;;
928;SDS011;451;47.988;7.842;2023-04-15T05:06:56;1.90;;;1.80;;
928;SDS011;451;47.988;7.842;2023-04-15T05:16:00;1.93;;;1.83;;
928;SDS011;451;47.988;7.842;2023-04-15T05:25:04;2.50;;;2.27;;
928;SDS011;451;47.988;7.842;2023-04-15T05:34:08;3.03;;;2.83;;
928;SDS011;451;47.988;7.842;2023-04-15T05:43:13;2.57;;;2.37;;
928;SDS011;451;47.988;7.842;2023-04-15T05:52:16;2.30;;;2.20;;
928;SDS011;451;47.988;7.842;2023-04-15T06:01:21;2.30;;;2.17;;
928;SDS011;451;47.988;7.842;2023-04-15T06:10:24;3.53;;;2.50;;
928;SDS011;451;47.988;7.842;2023-04-15T06:19:28;3.30;;;2.53;;
928;SDS011;451;47.988;7.842;2023-04-15T06:28:32;2.47;;;2.23;;
928;SDS011;451;47.988;7.842;2023-04-15T06:37:36;3.30;;;2.50;;
928;SDS011;451;47.988;7.842;2023-04-15T06:46:39;4.07;;;3.03;;
928;SDS011;451;47.988;7.842;2023-04-15T06:55:44;2.80;;;2.60;;
928;SDS011;451;47.988;7.842;2023-04-15T07:04:47;3.07;;;2.40;;
928;SDS011;451;47.988;7.842;2023-04-15T07:13:51;5.10;;;3.07;;
928;SDS011;451;47.988;7.842;2023-04-15T07:22:54;3.13;;;2.60;;
928;SDS011;451;47.988;7.842;2023-04-15T07:31:59;2.77;;;2.57;;
928;SDS011;451;47.988;7.842;2023-04-15T07:41:02;2.83;;;2.60;;
928;SDS011;451;47.988;7.842;2023-04-15T07:50:08;3.33;;;3.03;;
928;SDS011;451;47.988;7.842;2023-04-15T07:59:15;2.93;;;2.73;;
928;SDS011;451;47.988;7.842;2023-04-15T08:08:20;3.20;;;2.60;;
928;SDS011;451;47.988;7.842;2023-04-15T08:17:23;2.30;;;2.20;;
928;SDS011;451;47.988;7.842;2023-04-15T08:26:27;2.30;;;2.20;;
928;SDS011;451;47.988;7.842;2023-04-15T08:35:30;6.73;;;2.80;;
928;SDS011;451;47.988;7.842;2023-04-15T08:44:34;3.10;;;2.80;;
928;SDS011;451;47.988;7.842;2023-04-15T08:53:38;3.00;;;2.70;;
928;SDS011;451;47.988;7.842;2023-04-15T09:02:45;3.37;;;2.40;;
928;SDS011;451;47.988;7.842;2023-04-15T09:11:49;2.60;;;2.50;;
928;SDS011;451;47.988;7.842;2023-04-15T09:20:53;2.30;;;2.20;;
928;SDS011;451;47.988;7.842;2023-04-15T09:29:56;2.67;;;2.47;;
928;SDS011;451;47.988;7.842;2023-04-15T09:39:01;2.83;;;2.63;;
928;SDS011;451;47.988;7.842;2023-04-15T09:48:14;2.67;;;2.47;;
928;SDS011;451;47.988;7.842;2023-04-15T09:57:24;2.43;;;2.23;;
928;SDS011;451;47.988;7.842;2023-04-15T10:06:35;2.57;;;2.37;;
928;SDS011;451;47.988;7.842;2023-04-15T10:15:39;2.90;;;2.70;;
928;SDS011;451;47.988;7.842;2023-04-15T10:24:45;2.93;;;2.67;;
928;SDS011;451;47.988;7.842;2023-04-15T10:33:52;4.10;;;3.40;;
928;SDS011;451;47.988;7.842;2023-04-15T10:42:57;2.77;;;2.67;;
928;SDS011;451;47.988;7.842;2023-04-15T10:52:02;2.77;;;2.57;;
928;SDS011;451;47.988;7.842;2023-04-15T11:01:06;2.77;;;2.57;;
928;SDS011;451;47.988;7.842;2023-04-15T11:19:53;3.90;;;3.60;;
928;SDS011;451;47.988;7.842;2023-04-15T11:28:56;3.33;;;3.03;;
928;SDS011;451;47.988;7.842;2023-04-15T11:38:03;4.70;;;3.90;;
928;SDS011;451;47.988;7.842;2023-04-15T11:47:20;6.77;;;4.23;;
928;SDS011;451;47.988;7.842;2023-04-15T11:56:26;4.03;;;3.77;;
928;SDS011;451;47.988;7.842;2023-04-15T12:05:29;4.07;;;3.77;;
928;SDS011;451;47.988;7.842;2023-04-15T12:14:33;4.33;;;4.00;;
928;SDS011;451;47.988;7.842;2023-04-15T12:23:39;8.77;;;4.40;;
928;SDS011;451;47.988;7.842;2023-04-15T12:32:51;4.13;;;3.83;;
928;SDS011;451;47.988;7.842;2023-04-15T12:41:54;4.40;;;4.00;;
928;SDS011;451;47.988;7.842;2023-04-15T12:50:59;4.50;;;4.20;;
928;SDS011;451;47.988;7.842;2023-04-15T13:00:02;4.53;;;4.07;;
928;SDS011;451;47.988;7.842;2023-04-15T13:09:09;7.70;;;4.23;;
928;SDS011;451;47.988;7.842;2023-04-15T13:18:13;4.53;;;3.60;;
928;SDS011;451;47.988;7.842;2023-04-15T13:27:17;4.70;;;3.20;;
928;SDS011;451;47.988;7.842;2023-04-15T13:36:20;4.20;;;3.17;;
928;SDS011;451;47.988;7.842;2023-04-15T13:45:24;3.10;;;2.80;;
928;SDS011;451;47.988;7.842;2023-04-15T13:54:27;2.80;;;2.50;;
928;SDS011;451;47.988;7.842;2023-04-15T14:03:32;9.20;;;3.97;;
928;SDS011;451;47.988;7.842;2023-04-15T14:12:36;4.37;;;4.00;;
928;SDS011;451;47.988;7.842;2023-04-15T14:21:40;3.60;;;3.40;;
928;SDS011;451;47.988;7.842;2023-04-15T14:30:43;3.90;;;3.50;;
928;SDS011;451;47.988;7.842;2023-04-15T14:39:48;5.50;;;3.00;;
928;SDS011;451;47.988;7.842;2023-04-15T14:48:51;3.53;;;3.30;;
928;SDS011;451;47.988;7.842;2023-04-15T14:57:56;4.00;;;3.10;;
928;SDS011;451;47.988;7.842;2023-04-15T15:06:59;3.43;;;2.97;;
928;SDS011;451;47.988;7.842;2023-04-15T15:16:03;3.80;;;2.47;;
928;SDS011;451;47.988;7.842;2023-04-15T15:25:07;4.43;;;2.53;;
928;SDS011;451;47.988;7.842;2023-04-15T15:34:11;3.17;;;2.90;;
928;SDS011;451;47.988;7.842;2023-04-15T15:43:14;3.50;;;3.10;;
928;SDS011;451;47.988;7.842;2023-04-15T15:52:19;6.80;;;6.03;;
928;SDS011;451;47.988;7.842;2023-04-15T16:01:22;3.17;;;2.67;;
928;SDS011;451;47.988;7.842;2023-04-15T16:10:26;3.00;;;2.80;;
928;SDS011;451;47.988;7.842;2023-04-15T16:19:29;2.83;;;2.60;;
928;SDS011;451;47.988;7.842;2023-04-15T16:28:34;3.37;;;2.50;;
928;SDS011;451;47.988;7.842;2023-04-15T16:37:37;3.07;;;2.77;;
928;SDS011;451;47.988;7.842;2023-04-15T16:46:41;3.23;;;3.03;;
928;SDS011;451;47.988;7.842;2023-04-15T16:55:44;3.23;;;2.70;;
928;SDS011;451;47.988;7.842;2023-04-15T17:04:48;3.00;;;2.70;;
928;SDS011;451;47.988;7.842;2023-04-15T17:13:51;5.37;;;3.83;;
928;SDS011;451;47.988;7.842;2023-04-15T17:22:56;2.47;;;2.37;;
928;SDS011;451;47.988;7.842;2023-04-15T17:31:59;2.63;;;2.43;;
928;SDS011;451;47.988;7.842;2023-04-15T17:41:03;2.80;;;2.60;;
928;SDS011;451;47.988;7.842;2023-04-15T17:50:08;3.10;;;2.80;;
928;SDS011;451;47.988;7.842;2023-04-15T17:59:12;2.40;;;2.30;;
928;SDS011;451;47.988;7.842;2023-04-15T18:08:16;3.63;;;2.50;;
928;SDS011;451;47.988;7.842;2023-04-15T18:17:20;2.83;;;2.40;;
928;SDS011;451;47.988;7.842;2023-04-15T18:26:23;3.30;;;3.10;;
928;SDS011;451;47.988;7.842;2023-04-15T18:35:28;3.30;;;3.00;;
928;SDS011;451;47.988;7.842;2023-04-15T18:44:32;2.70;;;2.50;;
928;SDS011;451;47.988;7.842;2023-04-15T18:53:36;3.70;;;3.40;;
928;SDS011;451;47.988;7.842;2023-04-15T19:02:39;3.33;;;2.90;;
928;SDS011;451;47.988;7.842;2023-04-15T19:11:44;3.67;;;3.37;;
928;SDS011;451;47.988;7.842;2023-04-15T19:20:48;6.70;;;4.87;;
928;SDS011;451;47.988;7.842;2023-04-15T19:29:54;3.87;;;3.63;;
928;SDS011;451;47.988;7.842;2023-04-15T19:38:57;4.87;;;4.27;;
928;SDS011;451;47.988;7.842;2023-04-15T19:48:02;5.20;;;4.10;;
928;SDS011;451;47.988;7.842;2023-04-15T19:57:07;4.60;;;3.53;;
928;SDS011;451;47.988;7.842;2023-04-15T20:06:12;3.70;;;3.50;;
928;SDS011;451;47.988;7.842;2023-04-15T20:15:15;3.33;;;3.03;;
928;SDS011;451;47.988;7.842;2023-04-15T20:24:20;3.17;;;2.97;;
928;SDS011;451;47.988;7.842;2023-04-15T20:33:24;2.30;;;2.20;;
928;SDS011;451;47.988;7.842;2023-04-15T20:42:32;2.77;;;2.60;;
928;SDS011;451;47.988;7.842;2023-04-15T20:51:35;5.03;;;4.73;;
928;SDS011;451;47.988;7.842;2023-04-15T21:00:40;5.97;;;5.43;;
928;SDS011;451;47.988;7.842;2023-04-15T21:09:43;4.10;;;3.80;;
928;SDS011;451;47.988;7.842;2023-04-15T21:18:48;3.50;;;3.30;;
928;SDS011;451;47.988;7.842;2023-04-15T21:27:51;5.30;;;4.90;;
928;SDS011;451;47.988;7.842;2023-04-15T21:36:56;5.00;;;4.63;;
928;SDS011;451;47.988;7.842;2023-04-15T21:45:59;7.17;;;5.87;;
928;SDS011;451;47.988;7.842;2023-04-15T21:55:03;9.53;;;6.23;;
928;SDS011;451;47.988;7.842;2023-04-15T22:04:08;7.93;;;7.10;;
928;SDS011;451;47.988;7.842;2023-04-15T22:13:12;8.47;;;7.37;;
928;SDS011;451;47.988;7.842;2023-04-15T22:22:15;10.07;;;8.50;;
928;SDS011;451;47.988;7.842;2023-04-15T22:31:20;10.07;;;9.17;;
928;SDS011;451;47.988;7.842;2023-04-15T22:40:23;9.07;;;8.13;;
928;SDS011;451;47.988;7.842;2023-04-15T22:49:28;11.50;;;9.50;;
928;SDS011;451;47.988;7.842;2023-04-15T22:58:35;12.40;;;9.93;;
928;SDS011;451;47.988;7.842;2023-04-15T23:07:40;12.20;;;10.53;;
928;SDS011;451;47.988;7.842;2023-04-15T23:16:43;14.03;;;11.07;;
928;SDS011;451;47.988;7.842;2023-04-15T23:25:47;15.10;;;11.30;;
928;SDS011;451;47.988;7.842;2023-04-15T23:34:51;20.50;;;14.00;;
928;SDS011;451;47.988;7.842;2023-04-15T23:43:55;18.80;;;13.40;;
928;SDS011;451;47.988;7.842;2023-04-15T23:52:58;19.73;;;15.37;;
